sensor_id;sensor_type;location;lat;lon;timestamp;temperature;humidity
2158;DHT22;41972;48.774;9.282;2023-08-01T00:02:25;17.70;99.90
2158;DHT22;41972;48.774;9.282;2023-08-01T00:04:50;17.70;99.90
2158;DHT22;41972;48.774;9.282;2023-08-01T00:07:16;17.70;99.90
2158;DHT22;41972;48.774;9.282;2023-08-01T00:09:41;17.60;99.90
2158;DHT22;41972;48.774;9.282;2023-08-01T00:12:07;17.60;99.90
2158;DHT22;41972;48.774;9.282;2023-08-01T00:14:33;17.60;99.90
2158;DHT22;41972;48.774;9.282;2023-08-01T00:16:58;17.60;99.90
2158;DHT22;41972;48.774;9.282;2023-08-01T00:19:24;17.60;99.90
2158;DHT22;41972;48.774;9.282;2023-08-01T00:21:49;17.50;99.90
2158;DHT22;41972;48.774;9.282;2023-08-01T00:24:15;17.40;99.90
2158;DHT22;41972;48.774;9.282;2023-08-01T00:26:40;17.40;99.90
2158;DHT22;41972;48.774;9.282;2023-08-01T00:29:06;17.40;99.90
2158;DHT22;41972;48.774;9.282;2023-08-01T00:31:31;17.40;99.90
2158;DHT22;41972;48.774;9.282;2023-08-01T00:33:57;17.30;99.90
2158;DHT22;41972;48.774;9.282;2023-08-01T00:36:23;17.30;99.90
2158;DHT22;41972;48.774;9.282;2023-08-01T00:38:48;17.20;99.90
2158;DHT22;41972;48.774;9.282;2023-08-01T00:41:14;17.20;99.90
2158;DHT22;41972;48.774;9.282;2023-08-01T00:43:40;17.10;99.90
2158;DHT22;41972;48.774;9.282;2023-08-01T00:46:06;17.20;99.90
2158;DHT22;41972;48.774;9.282;2023-08-01T00:48:32;17.00;99.90
2158;DHT22;41972;48.774;9.282;2023-08-01T00:50:59;17.00;99.90
2158;DHT22;41972;48.774;9.282;2023-08-01T00:53:25;17.10;99.90
2158;DHT22;41972;48.774;9.282;2023-08-01T00:55:54;17.20;99.90
2158;DHT22;41972;48.774;9.282;2023-08-01T00:58:20;17.30;99.90
2158;DHT22;41972;48.774;9.282;2023-08-01T01:00:46;17.40;99.90
2158;DHT22;41972;48.774;9.282;2023-08-01T01:03:12;17.50;99.90
2158;DHT22;41972;48.774;9.282;2023-08-01T01:06:04;17.60;99.90
2158;DHT22;41972;48.774;9.282;2023-08-01T01:08:27;17.50;99.90
2158;DHT22;41972;48.774;9.282;2023-08-01T01:10:53;17.10;99.90
2158;DHT22;41972;48.774;9.282;2023-08-01T01:13:18;17.10;99.90
2158;DHT22;41972;48.774;9.282;2023-08-01T01:15:44;17.00;99.90
2158;DHT22;41972;48.774;9.282;2023-08-01T01:18:09;17.00;99.90
2158;DHT22;41972;48.774;9.282;2023-08-01T01:20:36;17.10;99.90
2158;DHT22;41972;48.774;9.282;2023-08-01T01:23:04;16.80;99.90
2158;DHT22;41972;48.774;9.282;2023-08-01T01:25:32;16.80;99.90
2158;DHT22;41972;48.774;9.282;2023-08-01T01:27:59;17.00;99.90
2158;DHT22;41972;48.774;9.282;2023-08-01T01:30:26;17.10;99.90
2158;DHT22;41972;48.774;9.282;2023-08-01T01:32:52;17.30;99.90
2158;DHT22;41972;48.774;9.282;2023-08-01T01:35:18;17.40;99.90
2158;DHT22;41972;48.774;9.282;2023-08-01T01:37:44;17.50;99.90
2158;DHT22;41972;48.774;9.282;2023-08-01T01:40:10;17.70;99.90
2158;DHT22;41972;48.774;9.282;2023-08-01T01:42:37;17.50;99.90
2158;DHT22;41972;48.774;9.282;2023-08-01T01:45:02;17.40;99.90
2158;DHT22;41972;48.774;9.282;2023-08-01T01:47:28;17.30;99.90
2158;DHT22;41972;48.774;9.282;2023-08-01T01:49:54;17.30;99.90
2158;DHT22;41972;48.774;9.282;2023-08-01T01:52:19;17.30;99.90
2158;DHT22;41972;48.774;9.282;2023-08-01T01:54:45;17.20;99.90
2158;DHT22;41972;48.774;9.282;2023-08-01T01:57:10;17.20;99.90
2158;DHT22;41972;48.774;9.282;2023-08-01T01:59:36;17.20;99.90
2158;DHT22;41972;48.774;9.282;2023-08-01T02:02:01;17.00;99.90
2158;DHT22;41972;48.774;9.282;2023-08-01T02:04:29;17.10;99.90
2158;DHT22;41972;48.774;9.282;2023-08-01T02:06:55;17.00;99.90
2158;DHT22;41972;48.774;9.282;2023-08-01T02:09:20;17.10;99.90
2158;DHT22;41972;48.774;9.282;2023-08-01T02:11:46;17.10;99.90
2158;DHT22;41972;48.774;9.282;2023-08-01T02:14:11;17.20;99.90
2158;DHT22;41972;48.774;9.282;2023-08-01T02:16:38;17.20;99.90
2158;DHT22;41972;48.774;9.282;2023-08-01T02:19:03;17.20;99.90
2158;DHT22;41972;48.774;9.282;2023-08-01T02:21:29;17.20;99.90
2158;DHT22;41972;48.774;9.282;2023-08-01T02:23:54;17.20;99.90
2158;DHT22;41972;48.774;9.282;2023-08-01T02:26:20;17.20;99.90
2158;DHT22;41972;48.774;9.282;2023-08-01T02:28:47;17.30;99.90
2158;DHT22;41972;48.774;9.282;2023-08-01T02:31:13;17.30;99.90
2158;DHT22;41972;48.774;9.282;2023-08-01T02:33:38;17.20;99.90
2158;DHT22;41972;48.774;9.282;2023-08-01T02:36:04;17.10;99.90
2158;DHT22;41972;48.774;9.282;2023-08-01T02:38:30;17.10;99.90
2158;DHT22;41972;48.774;9.282;2023-08-01T02:40:55;17.10;99.90
2158;DHT22;41972;48.774;9.282;2023-08-01T02:43:21;17.10;99.90
2158;DHT22;41972;48.774;9.282;2023-08-01T02:45:46;17.20;99.90
2158;DHT22;41972;48.774;9.282;2023-08-01T02:48:12;17.20;99.90
2158;DHT22;41972;48.774;9.282;2023-08-01T02:50:37;17.10;99.90
2158;DHT22;41972;48.774;9.282;2023-08-01T02:53:04;17.30;99.90
2158;DHT22;41972;48.774;9.282;2023-08-01T02:55:30;17.20;99.90
2158;DHT22;41972;48.774;9.282;2023-08-01T02:57:56;17.30;99.90
2158;DHT22;41972;48.774;9.282;2023-08-01T03:00:21;17.30;99.90
2158;DHT22;41972;48.774;9.282;2023-08-01T03:02:47;17.30;99.90
2158;DHT22;41972;48.774;9.282;2023-08-01T03:05:13;17.40;99.90
2158;DHT22;41972;48.774;9.282;2023-08-01T03:07:39;17.40;99.90
2158;DHT22;41972;48.774;9.282;2023-08-01T03:10:04;17.60;99.90
2158;DHT22;41972;48.774;9.282;2023-08-01T03:12:32;17.60;99.90
2158;DHT22;41972;48.774;9.282;2023-08-01T03:14:58;17.60;99.90
2158;DHT22;41972;48.774;9.282;2023-08-01T03:17:23;17.50;99.90
2158;DHT22;41972;48.774;9.282;2023-08-01T03:19:49;17.50;99.90
2158;DHT22;41972;48.774;9.282;2023-08-01T03:22:15;17.60;99.90
2158;DHT22;41972;48.774;9.282;2023-08-01T03:24:40;17.60;99.90
2158;DHT22;41972;48.774;9.282;2023-08-01T03:27:06;17.70;99.90
2158;DHT22;41972;48.774;9.282;2023-08-01T03:29:31;17.70;99.90
2158;DHT22;41972;48.774;9.282;2023-08-01T03:31:57;17.70;99.90
2158;DHT22;41972;48.774;9.282;2023-08-01T03:34:22;17.70;99.90
2158;DHT22;41972;48.774;9.282;2023-08-01T03:36:49;17.80;99.90
2158;DHT22;41972;48.774;9.282;2023-08-01T03:39:15;17.80;99.90
2158;DHT22;41972;48.774;9.282;2023-08-01T03:41:41;17.80;99.90
2158;DHT22;41972;48.774;9.282;2023-08-01T03:44:06;17.80;99.90
2158;DHT22;41972;48.774;9.282;2023-08-01T03:46:32;17.90;99.90
2158;DHT22;41972;48.774;9.282;2023-08-01T03:48:57;17.90;99.90
2158;DHT22;41972;48.774;9.282;2023-08-01T03:51:23;17.90;99.90
2158;DHT22;41972;48.774;9.282;2023-08-01T03:53:48;18.00;99.90
2158;DHT22;41972;48.774;9.282;2023-08-01T03:56:15;17.90;99.90
2158;DHT22;41972;48.774;9.282;2023-08-01T03:58:40;17.80;99.90
2158;DHT22;41972;48.774;9.282;2023-08-01T04:01:06;17.80;99.90
2158;DHT22;41972;48.774;9.282;2023-08-01T04:03:32;17.90;99.90
2158;DHT22;41972;48.774;9.282;2023-08-01T04:05:58;17.90;99.90
2158;DHT22;41972;48.774;9.282;2023-08-01T04:08:23;17.90;99.90
2158;DHT22;41972;48.774;9.282;2023-08-01T04:10:49;17.80;99.90
2158;DHT22;41972;48.774;9.282;2023-08-01T04:13:15;17.90;99.90
2158;DHT22;41972;48.774;9.282;2023-08-01T04:15:41;18.00;99.90
2158;DHT22;41972;48.774;9.282;2023-08-01T04:18:07;18.10;99.90
2158;DHT22;41972;48.774;9.282;2023-08-01T04:20:32;18.10;99.90
2158;DHT22;41972;48.774;9.282;2023-08-01T04:22:58;18.10;99.90
2158;DHT22;41972;48.774;9.282;2023-08-01T04:25:24;18.20;99.90
2158;DHT22;41972;48.774;9.282;2023-08-01T04:27:52;18.20;99.90
2158;DHT22;41972;48.774;9.282;2023-08-01T04:30:18;18.10;99.90
2158;DHT22;41972;48.774;9.282;2023-08-01T04:32:43;18.20;99.90
2158;DHT22;41972;48.774;9.282;2023-08-01T04:35:09;18.20;99.90
2158;DHT22;41972;48.774;9.282;2023-08-01T04:37:34;18.30;99.90
2158;DHT22;41972;48.774;9.282;2023-08-01T04:40:00;18.30;99.90
2158;DHT22;41972;48.774;9.282;2023-08-01T04:42:25;18.30;99.90
2158;DHT22;41972;48.774;9.282;2023-08-01T04:44:51;18.40;99.90
2158;DHT22;41972;48.774;9.282;2023-08-01T04:47:18;18.40;99.90
2158;DHT22;41972;48.774;9.282;2023-08-01T04:49:44;18.40;99.90
2158;DHT22;41972;48.774;9.282;2023-08-01T04:52:11;18.50;99.90
2158;DHT22;41972;48.774;9.282;2023-08-01T04:54:37;18.50;99.90
2158;DHT22;41972;48.774;9.282;2023-08-01T04:57:02;18.50;99.90
2158;DHT22;41972;48.774;9.282;2023-08-01T04:59:28;18.50;99.90
2158;DHT22;41972;48.774;9.282;2023-08-01T05:01:53;18.50;99.90
2158;DHT22;41972;48.774;9.282;2023-08-01T05:04:19;18.50;99.90
2158;DHT22;41972;48.774;9.282;2023-08-01T05:06:44;18.60;99.90
2158;DHT22;41972;48.774;9.282;2023-08-01T05:09:10;18.60;99.90
2158;DHT22;41972;48.774;9.282;2023-08-01T05:11:36;18.70;99.90
2158;DHT22;41972;48.774;9.282;2023-08-01T05:14:01;18.70;99.90
2158;DHT22;41972;48.774;9.282;2023-08-01T05:16:27;18.60;99.90
2158;DHT22;41972;48.774;9.282;2023-08-01T05:18:52;18.60;99.90
2158;DHT22;41972;48.774;9.282;2023-08-01T05:21:18;18.60;99.90
2158;DHT22;41972;48.774;9.282;2023-08-01T05:23:43;18.60;99.90
2158;DHT22;41972;48.774;9.282;2023-08-01T05:26:09;18.50;99.90
2158;DHT22;41972;48.774;9.282;2023-08-01T05:28:34;18.40;99.90
2158;DHT22;41972;48.774;9.282;2023-08-01T05:31:00;18.40;99.90
2158;DHT22;41972;48.774;9.282;2023-08-01T05:33:25;18.50;99.90
2158;DHT22;41972;48.774;9.282;2023-08-01T05:35:51;18.60;99.90
2158;DHT22;41972;48.774;9.282;2023-08-01T05:38:16;18.50;99.90
2158;DHT22;41972;48.774;9.282;2023-08-01T05:40:42;18.50;99.90
2158;DHT22;41972;48.774;9.282;2023-08-01T05:43:08;18.40;99.90
2158;DHT22;41972;48.774;9.282;2023-08-01T05:45:34;18.10;99.90
2158;DHT22;41972;48.774;9.282;2023-08-01T05:48:01;18.10;99.90
2158;DHT22;41972;48.774;9.282;2023-08-01T05:50:27;18.10;99.90
2158;DHT22;41972;48.774;9.282;2023-08-01T05:52:52;18.20;99.90
2158;DHT22;41972;48.774;9.282;2023-08-01T05:55:18;18.40;99.90
2158;DHT22;41972;48.774;9.282;2023-08-01T05:57:43;18.30;99.90
2158;DHT22;41972;48.774;9.282;2023-08-01T06:00:10;18.40;99.90
2158;DHT22;41972;48.774;9.282;2023-08-01T06:02:36;18.30;99.90
2158;DHT22;41972;48.774;9.282;2023-08-01T06:05:01;18.50;99.90
2158;DHT22;41972;48.774;9.282;2023-08-01T06:07:27;18.50;99.90
2158;DHT22;41972;48.774;9.282;2023-08-01T06:09:52;18.70;99.90
2158;DHT22;41972;48.774;9.282;2023-08-01T06:12:18;18.70;99.90
2158;DHT22;41972;48.774;9.282;2023-08-01T06:14:44;18.60;99.90
2158;DHT22;41972;48.774;9.282;2023-08-01T06:17:10;18.50;99.90
2158;DHT22;41972;48.774;9.282;2023-08-01T06:19:36;18.60;99.90
2158;DHT22;41972;48.774;9.282;2023-08-01T06:22:01;18.60;99.90
2158;DHT22;41972;48.774;9.282;2023-08-01T06:24:27;18.60;99.90
2158;DHT22;41972;48.774;9.282;2023-08-01T06:26:52;18.70;99.90
2158;DHT22;41972;48.774;9.282;2023-08-01T06:29:18;18.70;99.90
2158;DHT22;41972;48.774;9.282;2023-08-01T06:31:43;18.80;99.90
2158;DHT22;41972;48.774;9.282;2023-08-01T06:34:09;18.50;99.90
2158;DHT22;41972;48.774;9.282;2023-08-01T06:36:35;18.60;99.90
2158;DHT22;41972;48.774;9.282;2023-08-01T06:39:00;18.10;99.90
2158;DHT22;41972;48.774;9.282;2023-08-01T06:41:26;17.90;99.90
2158;DHT22;41972;48.774;9.282;2023-08-01T06:43:52;17.70;99.90
2158;DHT22;41972;48.774;9.282;2023-08-01T06:46:17;17.70;99.90
2158;DHT22;41972;48.774;9.282;2023-08-01T06:48:43;17.60;99.90
2158;DHT22;41972;48.774;9.282;2023-08-01T06:51:08;17.60;99.90
2158;DHT22;41972;48.774;9.282;2023-08-01T06:53:34;17.70;99.90
2158;DHT22;41972;48.774;9.282;2023-08-01T06:55:59;17.70;99.90
2158;DHT22;41972;48.774;9.282;2023-08-01T06:58:25;17.40;99.90
2158;DHT22;41972;48.774;9.282;2023-08-01T07:00:50;17.40;99.90
2158;DHT22;41972;48.774;9.282;2023-08-01T07:03:16;17.20;99.90
2158;DHT22;41972;48.774;9.282;2023-08-01T07:05:42;17.10;99.90
2158;DHT22;41972;48.774;9.282;2023-08-01T07:08:08;17.00;99.90
2158;DHT22;41972;48.774;9.282;2023-08-01T07:10:37;16.90;99.90
2158;DHT22;41972;48.774;9.282;2023-08-01T07:13:03;17.00;99.90
2158;DHT22;41972;48.774;9.282;2023-08-01T07:15:30;16.70;99.90
2158;DHT22;41972;48.774;9.282;2023-08-01T07:17:56;17.00;99.90
2158;DHT22;41972;48.774;9.282;2023-08-01T07:20:22;16.90;99.90
2158;DHT22;41972;48.774;9.282;2023-08-01T07:22:48;17.30;99.90
2158;DHT22;41972;48.774;9.282;2023-08-01T07:25:13;17.00;99.90
2158;DHT22;41972;48.774;9.282;2023-08-01T07:27:39;17.30;99.90
2158;DHT22;41972;48.774;9.282;2023-08-01T07:30:05;17.20;99.90
2158;DHT22;41972;48.774;9.282;2023-08-01T07:32:31;17.10;99.90
2158;DHT22;41972;48.774;9.282;2023-08-01T07:34:57;17.20;99.90
2158;DHT22;41972;48.774;9.282;2023-08-01T07:37:22;17.10;99.90
2158;DHT22;41972;48.774;9.282;2023-08-01T07:39:50;17.10;99.90
2158;DHT22;41972;48.774;9.282;2023-08-01T07:42:15;17.10;99.90
2158;DHT22;41972;48.774;9.282;2023-08-01T07:44:41;17.00;99.90
2158;DHT22;41972;48.774;9.282;2023-08-01T07:47:06;16.70;99.90
2158;DHT22;41972;48.774;9.282;2023-08-01T07:49:33;16.60;99.90
2158;DHT22;41972;48.774;9.282;2023-08-01T07:51:58;16.40;99.90
2158;DHT22;41972;48.774;9.282;2023-08-01T07:54:24;16.50;99.90
2158;DHT22;41972;48.774;9.282;2023-08-01T07:56:50;16.40;99.90
2158;DHT22;41972;48.774;9.282;2023-08-01T07:59:15;16.40;99.90
2158;DHT22;41972;48.774;9.282;2023-08-01T08:01:41;16.40;99.90
2158;DHT22;41972;48.774;9.282;2023-08-01T08:04:07;16.30;99.90
2158;DHT22;41972;48.774;9.282;2023-08-01T08:06:33;16.40;99.90
2158;DHT22;41972;48.774;9.282;2023-08-01T08:08:58;16.40;99.90
2158;DHT22;41972;48.774;9.282;2023-08-01T08:11:24;16.40;99.90
2158;DHT22;41972;48.774;9.282;2023-08-01T08:13:49;16.30;99.90
2158;DHT22;41972;48.774;9.282;2023-08-01T08:16:15;16.30;99.90
2158;DHT22;41972;48.774;9.282;2023-08-01T08:18:41;16.30;99.90
2158;DHT22;41972;48.774;9.282;2023-08-01T08:21:07;16.60;99.90
2158;DHT22;41972;48.774;9.282;2023-08-01T08:23:32;16.50;99.90
2158;DHT22;41972;48.774;9.282;2023-08-01T08:25:58;16.50;99.90
2158;DHT22;41972;48.774;9.282;2023-08-01T08:28:31;16.50;99.90
2158;DHT22;41972;48.774;9.282;2023-08-01T08:30:58;16.50;99.90
2158;DHT22;41972;48.774;9.282;2023-08-01T08:33:24;16.70;99.90
2158;DHT22;41972;48.774;9.282;2023-08-01T08:35:50;16.70;99.90
2158;DHT22;41972;48.774;9.282;2023-08-01T08:38:17;16.60;99.90
2158;DHT22;41972;48.774;9.282;2023-08-01T08:41:05;16.70;99.90
2158;DHT22;41972;48.774;9.282;2023-08-01T08:43:33;16.60;99.90
2158;DHT22;41972;48.774;9.282;2023-08-01T08:46:02;16.60;99.90
2158;DHT22;41972;48.774;9.282;2023-08-01T08:48:28;16.90;99.90
2158;DHT22;41972;48.774;9.282;2023-08-01T08:50:57;17.20;99.90
2158;DHT22;41972;48.774;9.282;2023-08-01T08:53:24;17.60;99.90
2158;DHT22;41972;48.774;9.282;2023-08-01T08:55:50;17.90;99.90
2158;DHT22;41972;48.774;9.282;2023-08-01T08:58:16;18.60;99.90
2158;DHT22;41972;48.774;9.282;2023-08-01T09:00:43;19.20;99.90
2158;DHT22;41972;48.774;9.282;2023-08-01T09:03:09;19.30;99.90
2158;DHT22;41972;48.774;9.282;2023-08-01T09:05:42;18.40;99.90
2158;DHT22;41972;48.774;9.282;2023-08-01T09:08:17;18.80;99.90
2158;DHT22;41972;48.774;9.282;2023-08-01T09:10:43;19.00;99.90
2158;DHT22;41972;48.774;9.282;2023-08-01T09:13:09;18.90;99.90
2158;DHT22;41972;48.774;9.282;2023-08-01T09:15:35;18.70;99.90
2158;DHT22;41972;48.774;9.282;2023-08-01T09:18:06;18.60;99.90
2158;DHT22;41972;48.774;9.282;2023-08-01T09:20:43;18.50;99.90
2158;DHT22;41972;48.774;9.282;2023-08-01T09:23:09;18.50;99.90
2158;DHT22;41972;48.774;9.282;2023-08-01T09:25:36;18.60;99.90
2158;DHT22;41972;48.774;9.282;2023-08-01T09:28:18;18.60;99.90
2158;DHT22;41972;48.774;9.282;2023-08-01T09:30:54;18.10;99.90
2158;DHT22;41972;48.774;9.282;2023-08-01T09:33:21;18.10;99.90
2158;DHT22;41972;48.774;9.282;2023-08-01T09:35:49;18.10;99.90
2158;DHT22;41972;48.774;9.282;2023-08-01T09:38:16;18.00;99.90
2158;DHT22;41972;48.774;9.282;2023-08-01T09:40:43;17.90;99.90
2158;DHT22;41972;48.774;9.282;2023-08-01T09:43:10;18.20;99.90
2158;DHT22;41972;48.774;9.282;2023-08-01T09:45:36;18.20;99.90
2158;DHT22;41972;48.774;9.282;2023-08-01T09:48:02;18.50;99.90
2158;DHT22;41972;48.774;9.282;2023-08-01T09:50:28;18.50;99.90
2158;DHT22;41972;48.774;9.282;2023-08-01T09:52:54;18.90;99.90
2158;DHT22;41972;48.774;9.282;2023-08-01T09:55:31;19.20;99.90
2158;DHT22;41972;48.774;9.282;2023-08-01T09:57:58;18.80;99.90
2158;DHT22;41972;48.774;9.282;2023-08-01T10:00:26;19.00;99.90
2158;DHT22;41972;48.774;9.282;2023-08-01T10:02:52;18.80;99.90
2158;DHT22;41972;48.774;9.282;2023-08-01T10:05:19;18.60;99.90
2158;DHT22;41972;48.774;9.282;2023-08-01T10:07:45;19.20;99.90
2158;DHT22;41972;48.774;9.282;2023-08-01T10:10:12;20.10;99.90
2158;DHT22;41972;48.774;9.282;2023-08-01T10:12:38;20.20;99.90
2158;DHT22;41972;48.774;9.282;2023-08-01T10:15:05;20.30;99.90
2158;DHT22;41972;48.774;9.282;2023-08-01T10:17:31;19.30;99.90
2158;DHT22;41972;48.774;9.282;2023-08-01T10:19:59;19.50;99.90
2158;DHT22;41972;48.774;9.282;2023-08-01T10:22:25;19.50;99.90
2158;DHT22;41972;48.774;9.282;2023-08-01T10:24:52;19.60;99.90
2158;DHT22;41972;48.774;9.282;2023-08-01T10:27:20;19.50;99.90
2158;DHT22;41972;48.774;9.282;2023-08-01T10:29:56;19.30;99.90
2158;DHT22;41972;48.774;9.282;2023-08-01T10:32:34;19.10;99.90
2158;DHT22;41972;48.774;9.282;2023-08-01T10:35:00;19.00;99.90
2158;DHT22;41972;48.774;9.282;2023-08-01T10:37:26;19.50;99.90
2158;DHT22;41972;48.774;9.282;2023-08-01T10:39:59;20.00;99.90
2158;DHT22;41972;48.774;9.282;2023-08-01T10:42:25;20.10;99.90
2158;DHT22;41972;48.774;9.282;2023-08-01T10:44:51;21.10;99.90
2158;DHT22;41972;48.774;9.282;2023-08-01T10:47:25;20.80;99.90
2158;DHT22;41972;48.774;9.282;2023-08-01T10:49:52;20.40;99.90
2158;DHT22;41972;48.774;9.282;2023-08-01T10:54:43;22.20;99.90
2158;DHT22;41972;48.774;9.282;2023-08-01T10:57:15;23.40;99.90
2158;DHT22;41972;48.774;9.282;2023-08-01T10:59:42;23.80;99.90
2158;DHT22;41972;48.774;9.282;2023-08-01T11:02:08;23.50;99.90
2158;DHT22;41972;48.774;9.282;2023-08-01T11:04:33;24.30;99.90
2158;DHT22;41972;48.774;9.282;2023-08-01T11:06:59;21.40;99.90
2158;DHT22;41972;48.774;9.282;2023-08-01T11:09:26;20.90;99.90
2158;DHT22;41972;48.774;9.282;2023-08-01T11:11:54;20.70;99.90
2158;DHT22;41972;48.774;9.282;2023-08-01T11:14:21;20.50;99.90
2158;DHT22;41972;48.774;9.282;2023-08-01T11:16:48;20.80;99.90
2158;DHT22;41972;48.774;9.282;2023-08-01T11:19:25;21.60;99.90
2158;DHT22;41972;48.774;9.282;2023-08-01T11:21:52;21.50;99.90
2158;DHT22;41972;48.774;9.282;2023-08-01T11:24:19;21.60;99.90
2158;DHT22;41972;48.774;9.282;2023-08-01T11:26:46;21.80;99.90
2158;DHT22;41972;48.774;9.282;2023-08-01T11:29:13;22.00;99.90
2158;DHT22;41972;48.774;9.282;2023-08-01T11:31:40;21.80;99.90
2158;DHT22;41972;48.774;9.282;2023-08-01T11:34:09;22.00;99.90
2158;DHT22;41972;48.774;9.282;2023-08-01T11:36:36;21.80;99.90
2158;DHT22;41972;48.774;9.282;2023-08-01T11:39:02;22.00;99.90
2158;DHT22;41972;48.774;9.282;2023-08-01T11:41:29;21.60;99.90
2158;DHT22;41972;48.774;9.282;2023-08-01T11:43:55;21.80;99.90
2158;DHT22;41972;48.774;9.282;2023-08-01T11:46:21;22.00;99.90
2158;DHT22;41972;48.774;9.282;2023-08-01T11:48:48;22.30;99.90
2158;DHT22;41972;48.774;9.282;2023-08-01T11:51:15;22.60;99.90
2158;DHT22;41972;48.774;9.282;2023-08-01T11:53:41;22.70;99.90
2158;DHT22;41972;48.774;9.282;2023-08-01T11:56:07;22.90;99.90
2158;DHT22;41972;48.774;9.282;2023-08-01T11:58:33;22.40;99.90
2158;DHT22;41972;48.774;9.282;2023-08-01T12:01:06;22.50;99.90
2158;DHT22;41972;48.774;9.282;2023-08-01T12:03:45;22.30;99.90
2158;DHT22;41972;48.774;9.282;2023-08-01T12:06:11;22.40;99.90
2158;DHT22;41972;48.774;9.282;2023-08-01T12:08:39;22.30;99.90
2158;DHT22;41972;48.774;9.282;2023-08-01T12:11:05;21.90;99.90
2158;DHT22;41972;48.774;9.282;2023-08-01T12:13:30;22.10;99.90
2158;DHT22;41972;48.774;9.282;2023-08-01T12:15:57;22.00;99.90
2158;DHT22;41972;48.774;9.282;2023-08-01T12:18:27;21.90;99.90
2158;DHT22;41972;48.774;9.282;2023-08-01T12:20:53;21.20;99.90
2158;DHT22;41972;48.774;9.282;2023-08-01T12:23:19;21.10;99.90
2158;DHT22;41972;48.774;9.282;2023-08-01T12:25:45;20.80;99.90
2158;DHT22;41972;48.774;9.282;2023-08-01T12:28:12;21.00;99.90
2158;DHT22;41972;48.774;9.282;2023-08-01T12:30:40;21.10;99.90
2158;DHT22;41972;48.774;9.282;2023-08-01T12:33:07;21.20;99.90
2158;DHT22;41972;48.774;9.282;2023-08-01T12:35:32;21.60;99.90
2158;DHT22;41972;48.774;9.282;2023-08-01T12:37:58;21.70;99.90
2158;DHT22;41972;48.774;9.282;2023-08-01T12:40:24;21.90;99.90
2158;DHT22;41972;48.774;9.282;2023-08-01T12:42:49;22.20;99.90
2158;DHT22;41972;48.774;9.282;2023-08-01T12:45:15;22.30;99.90
2158;DHT22;41972;48.774;9.282;2023-08-01T12:47:40;22.30;99.90
2158;DHT22;41972;48.774;9.282;2023-08-01T12:50:06;22.40;99.90
2158;DHT22;41972;48.774;9.282;2023-08-01T12:52:32;22.30;99.90
2158;DHT22;41972;48.774;9.282;2023-08-01T12:54:58;22.20;99.90
2158;DHT22;41972;48.774;9.282;2023-08-01T12:57:23;22.20;99.90
2158;DHT22;41972;48.774;9.282;2023-08-01T12:59:49;22.20;99.90
2158;DHT22;41972;48.774;9.282;2023-08-01T13:02:14;22.40;99.90
2158;DHT22;41972;48.774;9.282;2023-08-01T13:04:40;22.50;99.90
2158;DHT22;41972;48.774;9.282;2023-08-01T13:07:06;22.80;99.90
2158;DHT22;41972;48.774;9.282;2023-08-01T13:09:31;22.60;99.90
2158;DHT22;41972;48.774;9.282;2023-08-01T13:11:57;22.40;99.90
2158;DHT22;41972;48.774;9.282;2023-08-01T13:14:24;23.00;99.90
2158;DHT22;41972;48.774;9.282;2023-08-01T13:16:50;23.00;99.90
2158;DHT22;41972;48.774;9.282;2023-08-01T13:19:15;22.90;99.90
2158;DHT22;41972;48.774;9.282;2023-08-01T13:21:41;23.00;99.90
2158;DHT22;41972;48.774;9.282;2023-08-01T13:24:06;22.90;99.90
2158;DHT22;41972;48.774;9.282;2023-08-01T13:26:32;23.10;99.90
2158;DHT22;41972;48.774;9.282;2023-08-01T13:28:58;22.70;99.90
2158;DHT22;41972;48.774;9.282;2023-08-01T13:31:24;22.30;99.90
2158;DHT22;41972;48.774;9.282;2023-08-01T13:33:50;22.30;99.90
2158;DHT22;41972;48.774;9.282;2023-08-01T13:36:18;22.40;99.90
2158;DHT22;41972;48.774;9.282;2023-08-01T13:38:43;22.60;99.90
2158;DHT22;41972;48.774;9.282;2023-08-01T13:41:09;22.50;99.90
2158;DHT22;41972;48.774;9.282;2023-08-01T13:43:35;22.10;99.90
2158;DHT22;41972;48.774;9.282;2023-08-01T13:46:01;22.00;99.90
2158;DHT22;41972;48.774;9.282;2023-08-01T13:48:26;21.90;99.90
2158;DHT22;41972;48.774;9.282;2023-08-01T13:50:52;21.50;99.90
2158;DHT22;41972;48.774;9.282;2023-08-01T13:53:18;21.80;99.90
2158;DHT22;41972;48.774;9.282;2023-08-01T13:55:44;21.90;99.90
2158;DHT22;41972;48.774;9.282;2023-08-01T13:58:10;22.30;99.90
2158;DHT22;41972;48.774;9.282;2023-08-01T14:00:35;22.10;99.90
2158;DHT22;41972;48.774;9.282;2023-08-01T14:03:01;21.90;99.90
2158;DHT22;41972;48.774;9.282;2023-08-01T14:05:27;22.00;99.90
2158;DHT22;41972;48.774;9.282;2023-08-01T14:07:53;21.90;99.90
2158;DHT22;41972;48.774;9.282;2023-08-01T14:10:19;22.20;99.90
2158;DHT22;41972;48.774;9.282;2023-08-01T14:12:45;22.30;99.90
2158;DHT22;41972;48.774;9.282;2023-08-01T14:15:11;22.50;99.90
2158;DHT22;41972;48.774;9.282;2023-08-01T14:17:37;22.60;99.90
2158;DHT22;41972;48.774;9.282;2023-08-01T14:20:03;22.30;99.90
2158;DHT22;41972;48.774;9.282;2023-08-01T14:22:30;22.50;99.90
2158;DHT22;41972;48.774;9.282;2023-08-01T14:24:56;22.20;99.90
2158;DHT22;41972;48.774;9.282;2023-08-01T14:27:22;22.30;99.90
2158;DHT22;41972;48.774;9.282;2023-08-01T14:29:47;22.30;99.90
2158;DHT22;41972;48.774;9.282;2023-08-01T14:32:13;22.40;99.90
2158;DHT22;41972;48.774;9.282;2023-08-01T14:34:39;22.40;99.90
2158;DHT22;41972;48.774;9.282;2023-08-01T14:37:05;22.70;99.90
2158;DHT22;41972;48.774;9.282;2023-08-01T14:39:30;23.00;99.90
2158;DHT22;41972;48.774;9.282;2023-08-01T14:41:56;23.00;99.90
2158;DHT22;41972;48.774;9.282;2023-08-01T14:44:21;22.70;99.90
2158;DHT22;41972;48.774;9.282;2023-08-01T14:46:47;23.00;99.90
2158;DHT22;41972;48.774;9.282;2023-08-01T14:49:12;22.90;99.90
2158;DHT22;41972;48.774;9.282;2023-08-01T14:51:38;23.00;99.90
2158;DHT22;41972;48.774;9.282;2023-08-01T14:54:04;22.80;99.90
2158;DHT22;41972;48.774;9.282;2023-08-01T14:56:29;23.00;99.90
2158;DHT22;41972;48.774;9.282;2023-08-01T14:58:55;23.20;99.90
2158;DHT22;41972;48.774;9.282;2023-08-01T15:01:21;23.10;99.90
2158;DHT22;41972;48.774;9.282;2023-08-01T15:03:46;23.30;99.90
2158;DHT22;41972;48.774;9.282;2023-08-01T15:06:12;23.30;99.90
2158;DHT22;41972;48.774;9.282;2023-08-01T15:08:41;23.00;99.90
2158;DHT22;41972;48.774;9.282;2023-08-01T15:11:08;22.70;99.90
2158;DHT22;41972;48.774;9.282;2023-08-01T15:13:34;22.60;99.90
2158;DHT22;41972;48.774;9.282;2023-08-01T15:16:00;22.70;99.90
2158;DHT22;41972;48.774;9.282;2023-08-01T15:18:26;22.40;99.90
2158;DHT22;41972;48.774;9.282;2023-08-01T15:20:53;22.40;99.90
2158;DHT22;41972;48.774;9.282;2023-08-01T15:23:18;22.50;99.90
2158;DHT22;41972;48.774;9.282;2023-08-01T15:25:54;22.30;99.90
2158;DHT22;41972;48.774;9.282;2023-08-01T15:28:21;22.30;99.90
2158;DHT22;41972;48.774;9.282;2023-08-01T15:30:47;22.20;99.90
2158;DHT22;41972;48.774;9.282;2023-08-01T15:33:14;22.10;99.90
2158;DHT22;41972;48.774;9.282;2023-08-01T15:35:41;21.90;99.90
2158;DHT22;41972;48.774;9.282;2023-08-01T15:38:06;22.10;99.90
2158;DHT22;41972;48.774;9.282;2023-08-01T15:40:32;22.20;99.90
2158;DHT22;41972;48.774;9.282;2023-08-01T15:42:57;22.20;99.90